To NAV CANADA Home Page Login to a new session Search on AWWS site Disclaimer Vers la page française équivalente Tips FAQ What's new on the site To the Forecasts and Observations / NOTAM section To "File a Flight Plan" website Publications and other links Update of the User's profile FIC Telephone Numbers My Weather Data Folder Route Weather Data Regional Weather Data Local Weather Data To the Forecasts and Observations / NOTAM section
Request Generated 11/16/2018 at 20:38:40 UTC . Weather information available at that time is displayed.

METAR/TAF

WHITEHORSE/ERIK NIELSEN INTL/YT    

METAR CYXY 162000Z 17012KT 40SM SCT021 SCT160 BKN200 M09/M11 A3032 RMK SC3AC1CI3 SLP327=
METAR CYXY 161900Z 16014KT 40SM SCT022 BKN200 M10/M12 A3032 RMK SC4CI3 SLP329=
METAR CYXY 161800Z 17012KT 40SM SCT025 BKN200 M11/M13 A3033 RMK SC4CI3 SLP332=

TAF CYXY 161738Z 1618/1706 19010KT P6SM FEW025 TEMPO 1618/1706 BKN020
RMK NXT FCST BY 170000Z=
Your time UTC time
Weather data provided by Environment Canada and NAV CANADA